createdAt,value
2022-11-09T00:00:52.480Z,0.63
2022-11-09T00:03:19.316Z,0.60
2022-11-09T00:05:59.420Z,0.60
2022-11-09T00:08:26.171Z,0.57
2022-11-09T00:10:52.803Z,0.70
2022-11-09T00:13:19.636Z,0.63
2022-11-09T00:15:46.399Z,0.70
2022-11-09T00:18:12.994Z,0.60
2022-11-09T00:20:43.221Z,0.52
2022-11-09T00:23:13.719Z,0.60
2022-11-09T00:25:40.463Z,0.70
2022-11-09T00:28:07.057Z,0.70
2022-11-09T00:30:33.686Z,0.65
2022-11-09T00:33:00.245Z,0.65
2022-11-09T00:35:26.806Z,0.60
2022-11-09T00:37:53.446Z,0.70
2022-11-09T00:40:20.082Z,0.80
2022-11-09T00:42:46.629Z,0.60
2022-11-09T00:45:13.217Z,0.50
2022-11-09T00:47:39.786Z,0.73
2022-11-09T00:50:06.818Z,0.70
2022-11-09T00:52:33.379Z,0.80
2022-11-09T00:54:59.984Z,0.52
2022-11-09T00:57:26.528Z,0.70
2022-11-09T00:59:54.145Z,0.60
2022-11-09T01:02:20.781Z,0.52
2022-11-09T01:04:47.334Z,0.65
2022-11-09T01:07:13.946Z,0.60
2022-11-09T01:09:40.675Z,0.63
2022-11-09T01:12:07.292Z,0.50
2022-11-09T01:14:33.837Z,0.60
2022-11-09T01:17:00.437Z,0.73
2022-11-09T01:19:26.980Z,0.52
2022-11-09T01:21:53.531Z,0.50
2022-11-09T01:24:20.094Z,0.70
2022-11-09T01:26:46.664Z,0.70
2022-11-09T01:29:13.215Z,0.70
2022-11-09T01:31:39.794Z,0.63
2022-11-09T01:34:06.347Z,0.60
2022-11-09T01:36:32.931Z,0.60
2022-11-09T01:38:59.538Z,0.40
2022-11-09T01:41:28.471Z,0.70
2022-11-09T01:44:07.031Z,0.73
2022-11-09T01:46:43.679Z,0.60
2022-11-09T01:49:18.863Z,0.60
2022-11-09T01:51:50.439Z,0.60
2022-11-09T01:54:21.937Z,0.60
2022-11-09T01:56:51.096Z,0.70
2022-11-09T01:59:20.639Z,0.80
2022-11-09T02:01:47.427Z,0.70
2022-11-09T02:04:26.188Z,0.70
2022-11-09T02:06:54.603Z,0.63
2022-11-09T02:09:31.913Z,0.50
2022-11-09T02:11:58.481Z,0.85
2022-11-09T02:14:26.835Z,0.50
2022-11-09T02:16:53.570Z,0.60
2022-11-09T02:19:20.137Z,0.70
2022-11-09T02:21:46.747Z,0.70
2022-11-09T02:24:13.317Z,0.70
2022-11-09T02:26:49.457Z,0.80
2022-11-09T02:29:27.517Z,0.80
2022-11-09T02:32:06.927Z,0.68
2022-11-09T02:34:33.495Z,0.60
2022-11-09T02:37:00.042Z,0.70
2022-11-09T02:39:27.837Z,0.60
2022-11-09T02:42:03.179Z,0.68
2022-11-09T02:44:33.566Z,0.60
2022-11-09T02:47:00.107Z,0.70
2022-11-09T02:49:26.711Z,0.77
2022-11-09T02:51:53.285Z,0.70
2022-11-09T02:54:19.841Z,0.80
2022-11-09T02:56:46.401Z,0.70
2022-11-09T02:59:13.008Z,0.60
2022-11-09T03:01:39.727Z,0.80
2022-11-09T03:04:06.293Z,0.77
2022-11-09T03:06:35.800Z,0.80
2022-11-09T03:09:05.474Z,0.60
2022-11-09T03:11:32.323Z,0.50
2022-11-09T03:13:59.120Z,0.70
2022-11-09T03:16:25.790Z,0.63
2022-11-09T03:18:52.871Z,0.60
2022-11-09T03:21:19.650Z,0.70
2022-11-09T03:23:46.251Z,0.60
2022-11-09T03:26:12.790Z,0.60
2022-11-09T03:28:39.731Z,0.70
2022-11-09T03:31:06.330Z,0.60
2022-11-09T03:33:33.100Z,0.80
2022-11-09T03:35:59.734Z,0.80
2022-11-09T03:38:26.275Z,0.60
2022-11-09T03:40:52.839Z,0.65
2022-11-09T03:43:19.833Z,0.45
2022-11-09T03:45:47.649Z,0.80
2022-11-09T03:48:14.228Z,0.70
2022-11-09T03:50:40.827Z,0.70
2022-11-09T03:53:09.615Z,0.80
2022-11-09T03:55:36.555Z,0.60
2022-11-09T03:58:04.315Z,0.75
2022-11-09T04:00:31.231Z,0.70
2022-11-09T04:02:57.802Z,0.65
2022-11-09T04:05:24.563Z,0.73
2022-11-09T04:07:55.883Z,0.60
2022-11-09T04:10:24.131Z,0.70
2022-11-09T04:12:50.670Z,0.60
2022-11-09T04:15:17.389Z,0.70
2022-11-09T04:17:44.842Z,0.85
2022-11-09T04:20:12.091Z,0.77
2022-11-09T04:22:38.840Z,0.80
2022-11-09T04:25:06.030Z,0.80
2022-11-09T04:27:32.622Z,0.60
2022-11-09T04:29:59.232Z,0.85
2022-11-09T04:32:25.767Z,0.65
2022-11-09T04:34:52.366Z,0.70
2022-11-09T04:37:18.944Z,0.90
2022-11-09T04:39:45.515Z,0.85
2022-11-09T04:42:12.046Z,0.70
2022-11-09T04:44:38.842Z,0.80
2022-11-09T04:47:05.387Z,0.52
2022-11-09T04:49:31.943Z,0.85
2022-11-09T04:51:58.492Z,0.77
2022-11-09T04:54:25.035Z,1.05
2022-11-09T04:56:51.598Z,0.80
2022-11-09T04:59:18.202Z,0.80
2022-11-09T05:01:44.741Z,0.57
2022-11-09T05:04:11.311Z,0.82
2022-11-09T05:06:38.015Z,0.70
2022-11-09T05:09:06.404Z,0.82
2022-11-09T05:11:34.074Z,0.90
2022-11-09T05:14:01.166Z,0.80
2022-11-09T05:16:29.096Z,0.52
2022-11-09T05:18:55.895Z,0.88
2022-11-09T05:21:22.804Z,0.60
2022-11-09T05:24:01.544Z,0.70
2022-11-09T05:26:32.815Z,0.60
2022-11-09T05:29:00.620Z,0.60
2022-11-09T05:31:28.031Z,0.60
2022-11-09T05:33:55.170Z,0.60
2022-11-09T05:36:22.186Z,0.70
2022-11-09T05:38:49.163Z,0.90
2022-11-09T05:41:16.169Z,0.60
2022-11-09T05:43:44.703Z,0.70
2022-11-09T05:46:14.960Z,0.70
2022-11-09T05:48:42.103Z,1.02
2022-11-09T05:51:10.641Z,0.70
2022-11-09T05:53:41.059Z,0.90
2022-11-09T05:56:11.853Z,0.60
2022-11-09T05:58:39.037Z,0.80
2022-11-09T06:01:06.764Z,0.50
2022-11-09T06:03:33.358Z,0.82
2022-11-09T06:06:08.549Z,0.65
2022-11-09T06:08:35.993Z,0.80
2022-11-09T06:11:07.691Z,0.88
2022-11-09T06:13:34.612Z,0.90
2022-11-09T06:16:02.808Z,0.77
2022-11-09T06:18:30.898Z,1.23
2022-11-09T06:20:59.924Z,0.70
2022-11-09T06:23:27.068Z,0.90
2022-11-09T06:25:57.108Z,1.08
2022-11-09T06:28:23.658Z,0.60
2022-11-09T06:30:50.254Z,0.73
2022-11-09T06:33:16.891Z,0.82
2022-11-09T06:35:43.598Z,0.70
2022-11-09T06:38:11.561Z,0.80
2022-11-09T06:40:39.262Z,0.90
2022-11-09T06:43:06.079Z,0.90
2022-11-09T06:45:33.335Z,0.73
2022-11-09T06:48:01.932Z,0.70
2022-11-09T06:50:31.719Z,0.77
2022-11-09T06:53:04.008Z,1.00
2022-11-09T06:55:31.905Z,0.85
2022-11-09T06:57:58.927Z,0.70
2022-11-09T07:00:27.055Z,0.88
2022-11-09T07:02:53.827Z,0.90
2022-11-09T07:05:20.445Z,0.90
2022-11-09T07:07:47.064Z,0.60
2022-11-09T07:10:13.707Z,0.90
2022-11-09T07:12:40.926Z,0.98
2022-11-09T07:15:08.204Z,0.98
2022-11-09T07:17:37.059Z,0.70
2022-11-09T07:20:05.235Z,0.85
2022-11-09T07:22:31.988Z,0.70
2022-11-09T07:24:58.671Z,0.70
2022-11-09T07:27:28.229Z,0.65
2022-11-09T07:29:55.128Z,0.90
2022-11-09T07:32:35.331Z,0.80
2022-11-09T07:35:09.804Z,0.60
2022-11-09T07:37:36.793Z,0.80
2022-11-09T07:40:04.119Z,0.90
2022-11-09T07:42:30.674Z,0.93
2022-11-09T07:44:57.307Z,0.80
2022-11-09T07:47:23.875Z,0.75
2022-11-09T07:49:50.408Z,0.70
2022-11-09T07:52:16.976Z,0.90
2022-11-09T07:54:47.099Z,0.73
2022-11-09T07:57:16.052Z,0.80
2022-11-09T07:59:42.599Z,1.00
2022-11-09T08:02:11.002Z,0.80
2022-11-09T08:04:37.603Z,3.75
2022-11-09T08:07:04.177Z,3.00
2022-11-09T08:09:30.787Z,1.88
2022-11-09T08:11:57.328Z,1.83
2022-11-09T08:14:23.885Z,1.85
2022-11-09T08:16:50.458Z,2.97
2022-11-09T08:19:17.015Z,1.98
2022-11-09T08:21:43.644Z,2.47
2022-11-09T08:24:10.248Z,2.35
2022-11-09T08:26:36.791Z,2.08
2022-11-09T08:29:03.347Z,1.73
2022-11-09T08:31:30.963Z,2.10
2022-11-09T08:33:57.521Z,1.33
2022-11-09T08:36:26.196Z,1.77
2022-11-09T08:38:52.924Z,1.73
2022-11-09T08:41:19.487Z,1.70
2022-11-09T08:43:46.030Z,2.10
2022-11-09T08:46:12.654Z,1.60
2022-11-09T08:48:39.254Z,1.50
2022-11-09T08:51:06.072Z,1.33
2022-11-09T08:53:32.646Z,1.60
2022-11-09T08:55:59.468Z,1.40
2022-11-09T08:58:26.063Z,1.83
2022-11-09T09:00:52.848Z,1.67
2022-11-09T09:03:19.529Z,1.70
2022-11-09T09:05:46.123Z,1.40
2022-11-09T09:08:15.363Z,1.50
2022-11-09T09:10:42.549Z,1.58
2022-11-09T09:13:09.126Z,1.70
2022-11-09T09:15:35.707Z,1.80
2022-11-09T09:18:03.795Z,1.60
2022-11-09T09:20:30.692Z,1.55
2022-11-09T09:23:00.803Z,1.42
2022-11-09T09:25:27.965Z,1.60
2022-11-09T09:27:54.576Z,1.33
2022-11-09T09:30:21.360Z,1.85
2022-11-09T09:32:48.317Z,1.77
2022-11-09T09:35:14.892Z,1.40
2022-11-09T09:37:43.290Z,1.40
2022-11-09T09:40:20.897Z,1.10
2022-11-09T09:42:47.727Z,1.25
2022-11-09T09:45:19.432Z,1.13
2022-11-09T09:48:09.208Z,1.20
2022-11-09T09:50:48.684Z,1.13
2022-11-09T09:53:25.192Z,1.00
2022-11-09T09:56:12.473Z,1.25
2022-11-09T09:58:46.014Z,1.25
2022-11-09T10:03:41.152Z,1.15
2022-11-09T10:06:29.335Z,1.35
2022-11-09T10:09:09.294Z,1.20
2022-11-09T10:11:41.842Z,1.40
2022-11-09T10:14:23.563Z,1.40
2022-11-09T10:17:25.221Z,1.40
2022-11-09T10:20:13.407Z,1.50
2022-11-09T10:22:51.025Z,1.10
2022-11-09T10:25:50.753Z,1.20
2022-11-09T10:28:15.177Z,1.20
2022-11-09T10:30:42.140Z,1.50
2022-11-09T10:33:11.377Z,1.50
2022-11-09T10:36:07.891Z,1.40
2022-11-09T10:38:43.724Z,1.13
2022-11-09T10:41:33.673Z,1.20
2022-11-09T10:44:00.419Z,1.33
2022-11-09T10:46:26.987Z,1.30
2022-11-09T10:48:55.581Z,1.27
2022-11-09T10:51:40.608Z,1.10
2022-11-09T10:54:35.403Z,1.38
2022-11-09T10:57:15.613Z,1.10
2022-11-09T10:59:52.995Z,1.10
2022-11-09T11:02:29.795Z,1.48
2022-11-09T11:04:59.360Z,1.40
2022-11-09T11:07:25.942Z,1.40
2022-11-09T11:09:52.548Z,1.00
2022-11-09T11:12:22.377Z,1.10
2022-11-09T11:14:48.946Z,1.50
2022-11-09T11:17:24.065Z,1.30
2022-11-09T11:19:50.661Z,1.38
2022-11-09T11:22:25.094Z,1.77
2022-11-09T11:25:19.245Z,1.15
2022-11-09T11:28:03.096Z,1.10
2022-11-09T11:30:39.624Z,1.40
2022-11-09T11:33:18.984Z,1.52
2022-11-09T11:35:53.537Z,1.42
2022-11-09T11:38:30.999Z,1.40
2022-11-09T11:41:06.505Z,1.80
2022-11-09T11:43:40.966Z,1.40
2022-11-09T11:46:14.695Z,1.50
2022-11-09T11:48:56.639Z,1.50
2022-11-09T11:51:52.693Z,1.25
2022-11-09T11:54:30.827Z,1.60
2022-11-09T11:57:27.430Z,1.60
2022-11-09T12:00:05.016Z,1.80
2022-11-09T12:03:11.541Z,1.50
2022-11-09T12:05:52.076Z,1.85
2022-11-09T12:08:43.328Z,1.70
2022-11-09T12:11:47.023Z,1.85
2022-11-09T12:14:33.149Z,1.50
2022-11-09T12:17:25.419Z,1.73
2022-11-09T12:20:21.238Z,1.77
2022-11-09T12:22:59.796Z,1.60
2022-11-09T12:25:46.597Z,1.55
2022-11-09T12:28:18.809Z,1.50
2022-11-09T12:31:05.147Z,2.00
2022-11-09T12:33:43.269Z,1.38
2022-11-09T12:36:24.611Z,1.50
2022-11-09T12:39:05.925Z,1.40
2022-11-09T12:41:35.331Z,1.48
2022-11-09T12:44:26.634Z,1.70
2022-11-09T12:46:59.809Z,1.67
2022-11-09T12:49:36.832Z,1.75
2022-11-09T12:52:06.027Z,1.63
2022-11-09T12:54:32.614Z,1.80
2022-11-09T12:57:12.016Z,1.63
2022-11-09T12:59:48.206Z,1.70
2022-11-09T13:02:27.532Z,1.70
2022-11-09T13:04:59.329Z,1.75
2022-11-09T13:07:41.880Z,1.40
2022-11-09T13:10:34.615Z,1.50
2022-11-09T13:13:10.218Z,1.55
2022-11-09T13:15:38.035Z,1.30
2022-11-09T13:18:24.782Z,1.40
2022-11-09T13:20:56.888Z,1.55
2022-11-09T13:26:31.877Z,1.40
2022-11-09T13:29:20.476Z,1.30
2022-11-09T13:31:58.940Z,1.02
2022-11-09T13:34:44.195Z,1.00
2022-11-09T13:37:35.956Z,1.27
2022-11-09T13:40:31.742Z,1.08
2022-11-09T13:43:10.389Z,1.33
2022-11-09T13:45:37.652Z,0.88
2022-11-09T13:48:05.871Z,1.08
2022-11-09T13:50:33.984Z,1.30
2022-11-09T13:53:01.193Z,0.98
2022-11-09T13:55:38.091Z,1.10
2022-11-09T13:58:15.499Z,1.00
2022-11-09T14:00:46.134Z,0.93
2022-11-09T14:03:20.756Z,1.13
2022-11-09T14:05:50.732Z,1.10
2022-11-09T14:08:23.200Z,1.30
2022-11-09T14:11:16.363Z,0.90
2022-11-09T14:13:51.177Z,1.15
2022-11-09T14:16:40.272Z,1.13
2022-11-09T14:19:40.271Z,1.05
2022-11-09T14:22:18.491Z,1.00
2022-11-09T14:24:45.244Z,0.93
2022-11-09T14:27:11.739Z,0.95
2022-11-09T14:29:52.688Z,1.20
2022-11-09T14:32:27.998Z,1.20
2022-11-09T14:35:18.863Z,1.05
2022-11-09T14:37:45.827Z,0.65
2022-11-09T14:40:23.243Z,0.82
2022-11-09T14:42:53.451Z,1.02
2022-11-09T14:45:20.286Z,0.90
2022-11-09T14:47:48.932Z,1.20
2022-11-09T14:50:26.860Z,1.15
2022-11-09T14:52:54.714Z,1.08
2022-11-09T14:55:23.111Z,1.13
2022-11-09T14:57:51.687Z,0.93
2022-11-09T15:00:30.181Z,1.13
2022-11-09T15:02:56.839Z,1.00
2022-11-09T15:05:29.280Z,0.90
2022-11-09T15:07:55.826Z,0.82
2022-11-09T15:10:24.166Z,0.90
2022-11-09T15:12:55.038Z,0.80
2022-11-09T15:15:25.057Z,1.10
2022-11-09T15:17:51.886Z,0.80
2022-11-09T15:20:21.408Z,0.88
2022-11-09T15:22:57.984Z,0.80
2022-11-09T15:25:29.312Z,0.73
2022-11-09T15:28:20.471Z,1.17
2022-11-09T15:30:53.675Z,1.08
2022-11-09T15:33:24.492Z,0.82
2022-11-09T15:36:00.890Z,0.98
2022-11-09T15:38:34.293Z,0.90
2022-11-09T15:43:28.018Z,1.17
2022-11-09T15:45:55.503Z,0.85
2022-11-09T15:48:22.685Z,0.88
2022-11-09T15:50:49.805Z,0.77
2022-11-09T15:53:16.576Z,0.75
2022-11-09T15:55:43.212Z,1.05
2022-11-09T15:58:14.139Z,0.80
2022-11-09T16:00:41.254Z,0.80
2022-11-09T16:03:08.960Z,0.90
2022-11-09T16:05:35.535Z,0.57
2022-11-09T16:08:02.573Z,1.00
2022-11-09T16:10:30.691Z,0.63
2022-11-09T16:12:57.347Z,0.98
2022-11-09T16:15:24.350Z,0.65
2022-11-09T16:17:51.253Z,0.77
2022-11-09T16:20:18.871Z,0.73
2022-11-09T16:22:45.973Z,0.73
2022-11-09T16:25:12.944Z,0.70
2022-11-09T16:27:55.523Z,0.70
2022-11-09T16:30:22.324Z,0.80
2022-11-09T16:32:49.491Z,0.90
2022-11-09T16:35:26.564Z,0.93
2022-11-09T16:37:55.330Z,0.90
2022-11-09T16:40:22.151Z,0.82
2022-11-09T16:42:49.308Z,0.90
2022-11-09T16:45:16.544Z,1.00
2022-11-09T16:47:46.697Z,0.88
2022-11-09T16:50:13.686Z,1.00
2022-11-09T16:52:40.271Z,1.00
2022-11-09T16:55:09.314Z,0.50
2022-11-09T16:57:35.898Z,0.70
2022-11-09T17:00:02.910Z,0.70
2022-11-09T17:02:29.517Z,0.73
2022-11-09T17:04:56.084Z,0.80
2022-11-09T17:07:22.728Z,0.77
2022-11-09T17:09:49.362Z,1.13
2022-11-09T17:12:15.907Z,0.77
2022-11-09T17:14:42.593Z,0.82
2022-11-09T17:17:09.277Z,0.75
2022-11-09T17:19:36.424Z,1.00
2022-11-09T17:22:04.486Z,0.52
2022-11-09T17:24:31.661Z,0.60
2022-11-09T17:26:58.351Z,0.70
2022-11-09T17:29:24.989Z,0.93
2022-11-09T17:31:51.540Z,0.90
2022-11-09T17:34:18.080Z,0.60
2022-11-09T17:39:31.220Z,0.80
2022-11-09T17:41:57.846Z,0.80
2022-11-09T17:44:24.447Z,0.90
2022-11-09T17:46:51.047Z,0.80
2022-11-09T17:49:17.656Z,0.90
2022-11-09T17:51:44.264Z,0.70
2022-11-09T17:54:10.810Z,0.57
2022-11-09T17:56:37.422Z,0.90
2022-11-09T17:59:05.404Z,0.80
2022-11-09T18:01:36.395Z,0.90
2022-11-09T18:04:06.830Z,0.70
2022-11-09T18:06:33.865Z,0.70
2022-11-09T18:09:34.426Z,0.70
2022-11-09T18:11:47.622Z,0.95
2022-11-09T18:14:14.268Z,0.75
2022-11-09T18:16:40.857Z,0.55
2022-11-09T18:19:07.601Z,0.80
2022-11-09T18:21:34.226Z,0.82
2022-11-09T18:24:00.849Z,0.60
2022-11-09T18:26:27.588Z,0.55
2022-11-09T18:28:56.595Z,0.73
2022-11-09T18:31:23.122Z,0.80
2022-11-09T18:33:50.193Z,0.55
2022-11-09T18:36:21.601Z,0.70
2022-11-09T18:38:51.136Z,0.55
2022-11-09T18:41:20.644Z,0.65
2022-11-09T18:43:47.728Z,0.70
2022-11-09T18:46:15.664Z,0.80
2022-11-09T18:48:42.690Z,0.55
2022-11-09T18:51:10.102Z,0.68
2022-11-09T18:53:42.048Z,0.85
2022-11-09T18:56:21.978Z,0.80
2022-11-09T18:58:50.290Z,0.70
2022-11-09T19:01:17.071Z,0.80
2022-11-09T19:03:43.703Z,0.70
2022-11-09T19:06:15.606Z,0.70
2022-11-09T19:09:00.922Z,0.57
2022-11-09T19:11:27.743Z,0.80
2022-11-09T19:13:55.159Z,0.70
2022-11-09T19:16:22.188Z,0.80
2022-11-09T19:18:48.792Z,0.80
2022-11-09T19:21:21.340Z,0.70
2022-11-09T19:23:47.827Z,0.57
2022-11-09T19:26:14.406Z,0.68
2022-11-09T19:28:40.945Z,0.60
2022-11-09T19:31:11.393Z,0.68
2022-11-09T19:33:37.965Z,0.70
2022-11-09T19:36:28.480Z,0.65
2022-11-09T19:38:51.464Z,0.70
2022-11-09T19:41:18.079Z,0.50
2022-11-09T19:43:44.704Z,0.50
2022-11-09T19:46:11.278Z,0.80
2022-11-09T19:48:37.867Z,0.55
2022-11-09T19:51:04.643Z,0.50
2022-11-09T19:53:31.197Z,0.80
2022-11-09T19:55:59.295Z,0.75
2022-11-09T19:58:26.127Z,0.80
2022-11-09T20:01:01.668Z,0.60
2022-11-09T20:03:28.223Z,0.80
2022-11-09T20:05:55.057Z,0.82
2022-11-09T20:08:21.939Z,0.50
2022-11-09T20:10:49.333Z,0.90
2022-11-09T20:13:21.542Z,0.90
2022-11-09T20:15:48.571Z,0.90
2022-11-09T20:18:15.243Z,0.85
2022-11-09T20:20:41.785Z,0.80
2022-11-09T20:23:08.360Z,0.60
2022-11-09T20:25:34.960Z,0.60
2022-11-09T20:28:01.502Z,1.20
2022-11-09T20:30:28.027Z,0.60
2022-11-09T20:32:54.575Z,0.70
2022-11-09T20:35:21.135Z,0.80
2022-11-09T20:37:47.664Z,0.60
2022-11-09T20:40:14.221Z,0.70
2022-11-09T20:42:40.820Z,0.82
2022-11-09T20:45:07.586Z,0.80
2022-11-09T20:48:02.054Z,0.60
2022-11-09T20:50:20.680Z,0.75
2022-11-09T20:52:47.209Z,0.60
2022-11-09T20:55:13.862Z,0.77
2022-11-09T20:57:40.415Z,0.80
2022-11-09T21:00:07.751Z,1.00
2022-11-09T21:02:34.366Z,0.70
2022-11-09T21:05:01.459Z,0.70
2022-11-09T21:07:27.992Z,0.70
2022-11-09T21:09:54.599Z,0.73
2022-11-09T21:12:21.159Z,0.80
2022-11-09T21:14:47.731Z,0.90
2022-11-09T21:17:16.076Z,0.80
2022-11-09T21:19:42.618Z,0.70
2022-11-09T21:22:09.164Z,0.95
2022-11-09T21:24:54.507Z,0.80
2022-11-09T21:27:41.188Z,0.85
2022-11-09T21:30:11.779Z,0.80
2022-11-09T21:32:38.776Z,0.60
2022-11-09T21:35:05.927Z,0.70
2022-11-09T21:37:32.497Z,0.70
2022-11-09T21:39:59.026Z,0.63
2022-11-09T21:42:25.597Z,0.65
2022-11-09T21:44:52.177Z,0.80
2022-11-09T21:47:18.807Z,0.50
2022-11-09T21:49:45.373Z,0.50
2022-11-09T21:52:11.955Z,0.75
2022-11-09T21:54:38.940Z,0.52
2022-11-09T21:57:05.520Z,0.65
2022-11-09T21:59:32.194Z,0.63
2022-11-09T22:01:58.795Z,0.88
2022-11-09T22:04:25.380Z,0.80
2022-11-09T22:06:51.942Z,1.00
2022-11-09T22:09:18.806Z,0.50
2022-11-09T22:12:04.582Z,0.65
2022-11-09T22:14:49.945Z,0.50
2022-11-09T22:17:16.544Z,0.75
2022-11-09T22:20:01.649Z,0.77
2022-11-09T22:22:30.028Z,0.75
2022-11-09T22:24:56.925Z,0.60
2022-11-09T22:27:23.555Z,0.50
2022-11-09T22:29:50.135Z,0.40
2022-11-09T22:32:16.676Z,0.70
2022-11-09T22:34:44.761Z,0.57
2022-11-09T22:37:11.341Z,0.75
2022-11-09T22:39:39.797Z,0.60
2022-11-09T22:42:09.585Z,0.60
2022-11-09T22:44:36.584Z,0.60
2022-11-09T22:47:03.155Z,0.65
2022-11-09T22:49:29.703Z,0.55
2022-11-09T22:51:56.264Z,0.50
2022-11-09T22:54:22.991Z,0.43
2022-11-09T22:56:49.535Z,0.68
2022-11-09T22:59:16.121Z,0.57
2022-11-09T23:01:42.753Z,0.68
2022-11-09T23:04:10.511Z,0.50
2022-11-09T23:06:37.142Z,0.63
2022-11-09T23:09:03.876Z,0.65
2022-11-09T23:11:30.454Z,0.60
2022-11-09T23:13:57.031Z,0.60
2022-11-09T23:16:23.645Z,0.70
2022-11-09T23:18:56.075Z,0.40
2022-11-09T23:21:31.179Z,0.50
2022-11-09T23:24:00.647Z,0.60
2022-11-09T23:26:28.329Z,0.50
2022-11-09T23:28:55.170Z,0.50
2022-11-09T23:31:26.923Z,0.43
2022-11-09T23:33:55.266Z,0.40
2022-11-09T23:36:22.881Z,0.70
2022-11-09T23:38:49.509Z,0.40
2022-11-09T23:41:16.727Z,0.50
2022-11-09T23:43:48.685Z,0.40
2022-11-09T23:46:15.821Z,0.60
2022-11-09T23:48:42.586Z,0.50
2022-11-09T23:51:09.719Z,0.50
2022-11-09T23:53:36.457Z,0.60
2022-11-09T23:56:08.806Z,0.47
2022-11-09T23:58:35.487Z,0.60
